Abilene/Dyess AFB, Texas
Current Conditions -  °F | °C
As of 5:58 PM on Friday 24 Oct 2014 (Local Time) from KDYS Reporting Station
Clear Clear  
Wind Chill: 86°   Ceiling: Unl
Heat Index: 86°   Visibility: 10mi
Dew Point: 55°   Wind: 10mph
Humidity: 34%   Direction: 180°S
Pressure: 30.07"   Gusts: NA
Location:  32.43°N, 99.83°W
Report Text: KDYS 242258Z AUTO 18009KT 10SM CLR 30/13 A3007 RMK AO2 SLP143 T03000126 $
Loading
Personal Weather Stations






























Interactive Weather Map New forecast layout! Learn more

10-Day Weather Forecast

Advertisements
Track Severe Weather on mobile